Itaska, New York
Current Conditions -  °F | °C
As of 9:53 PM on Monday 26 Jan 2015 (Local Time) from KBGM Reporting Station
Overcast Overcast  
Wind Chill:   Ceiling: 4500
Heat Index: 16°   Visibility: 10mi
Dew Point: 14°   Wind: 7mph
Humidity: 92%   Direction: 40°NE
Pressure: 29.78"   Gusts: NA
Location:  42.3636°N, 75.9252°W
Report Text: KBGM 270253Z 04006KT 10SM BKN045 OVC055 M09/M10 A2978 RMK AO2 SNE29 SLP116 P0000 60001 T10891100 58009
Loading
Personal Weather Stations






























Interactive Weather Map New forecast layout! Learn more

10-Day Weather Forecast

Advertisements
Track Severe Weather on mobile